sensor_id;sensor_type;location;lat;lon;timestamp;P1;durP1;ratioP1;P2;durP2;ratioP2
2021;SDS011;1015;49.756;6.994;2023-06-14T00:01:00;7.10;;;6.40;;
2021;SDS011;1015;49.756;6.994;2023-06-14T00:03:31;6.77;;;6.17;;
2021;SDS011;1015;49.756;6.994;2023-06-14T00:05:59;6.77;;;6.20;;
2021;SDS011;1015;49.756;6.994;2023-06-14T00:08:26;7.27;;;6.67;;
2021;SDS011;1015;49.756;6.994;2023-06-14T00:10:54;7.50;;;6.47;;
2021;SDS011;1015;49.756;6.994;2023-06-14T00:13:21;7.20;;;6.60;;
2021;SDS011;1015;49.756;6.994;2023-06-14T00:15:48;7.50;;;6.80;;
2021;SDS011;1015;49.756;6.994;2023-06-14T00:18:18;7.67;;;6.73;;
2021;SDS011;1015;49.756;6.994;2023-06-14T00:20:49;7.50;;;6.77;;
2021;SDS011;1015;49.756;6.994;2023-06-14T00:23:18;7.80;;;7.10;;
2021;SDS011;1015;49.756;6.994;2023-06-14T00:25:45;6.90;;;6.30;;
2021;SDS011;1015;49.756;6.994;2023-06-14T00:28:12;8.37;;;7.00;;
2021;SDS011;1015;49.756;6.994;2023-06-14T00:30:40;7.10;;;6.50;;
2021;SDS011;1015;49.756;6.994;2023-06-14T00:33:09;7.43;;;6.23;;
2021;SDS011;1015;49.756;6.994;2023-06-14T00:35:36;6.97;;;6.37;;
2021;SDS011;1015;49.756;6.994;2023-06-14T00:38:03;7.47;;;6.87;;
2021;SDS011;1015;49.756;6.994;2023-06-14T00:40:32;7.33;;;6.73;;
2021;SDS011;1015;49.756;6.994;2023-06-14T00:42:59;7.20;;;6.60;;
2021;SDS011;1015;49.756;6.994;2023-06-14T00:45:27;7.30;;;6.60;;
2021;SDS011;1015;49.756;6.994;2023-06-14T00:47:56;7.37;;;6.77;;
2021;SDS011;1015;49.756;6.994;2023-06-14T00:50:23;7.77;;;6.80;;
2021;SDS011;1015;49.756;6.994;2023-06-14T00:52:51;7.37;;;6.77;;
2021;SDS011;1015;49.756;6.994;2023-06-14T00:55:18;9.13;;;7.00;;
2021;SDS011;1015;49.756;6.994;2023-06-14T00:57:47;7.77;;;7.07;;
2021;SDS011;1015;49.756;6.994;2023-06-14T01:00:15;8.10;;;7.30;;
2021;SDS011;1015;49.756;6.994;2023-06-14T01:02:42;6.90;;;6.30;;
2021;SDS011;1015;49.756;6.994;2023-06-14T01:05:09;7.87;;;7.13;;
2021;SDS011;1015;49.756;6.994;2023-06-14T01:07:41;9.00;;;7.00;;
2021;SDS011;1015;49.756;6.994;2023-06-14T01:10:14;8.10;;;7.37;;
2021;SDS011;1015;49.756;6.994;2023-06-14T01:12:44;8.13;;;7.30;;
2021;SDS011;1015;49.756;6.994;2023-06-14T01:15:16;8.10;;;7.03;;
2021;SDS011;1015;49.756;6.994;2023-06-14T01:17:44;7.33;;;6.73;;
2021;SDS011;1015;49.756;6.994;2023-06-14T01:20:12;7.97;;;6.67;;
2021;SDS011;1015;49.756;6.994;2023-06-14T01:22:47;9.17;;;6.93;;
2021;SDS011;1015;49.756;6.994;2023-06-14T01:25:15;8.53;;;7.77;;
2021;SDS011;1015;49.756;6.994;2023-06-14T01:27:45;8.43;;;7.63;;
2021;SDS011;1015;49.756;6.994;2023-06-14T01:30:13;7.80;;;7.00;;
2021;SDS011;1015;49.756;6.994;2023-06-14T01:32:40;7.80;;;7.10;;
2021;SDS011;1015;49.756;6.994;2023-06-14T01:35:08;7.70;;;7.10;;
2021;SDS011;1015;49.756;6.994;2023-06-14T01:37:35;9.03;;;7.10;;
2021;SDS011;1015;49.756;6.994;2023-06-14T01:40:04;8.17;;;7.47;;
2021;SDS011;1015;49.756;6.994;2023-06-14T01:42:32;7.73;;;6.70;;
2021;SDS011;1015;49.756;6.994;2023-06-14T01:45:00;7.70;;;7.00;;
2021;SDS011;1015;49.756;6.994;2023-06-14T01:47:28;8.83;;;7.10;;
2021;SDS011;1015;49.756;6.994;2023-06-14T01:49:56;8.03;;;7.23;;
2021;SDS011;1015;49.756;6.994;2023-06-14T01:52:23;7.63;;;6.87;;
2021;SDS011;1015;49.756;6.994;2023-06-14T01:54:50;8.37;;;7.53;;
2021;SDS011;1015;49.756;6.994;2023-06-14T01:57:19;7.77;;;7.07;;
2021;SDS011;1015;49.756;6.994;2023-06-14T01:59:46;7.90;;;6.87;;
2021;SDS011;1015;49.756;6.994;2023-06-14T02:02:14;7.50;;;6.80;;
2021;SDS011;1015;49.756;6.994;2023-06-14T02:04:42;7.83;;;6.90;;
2021;SDS011;1015;49.756;6.994;2023-06-14T02:07:11;8.20;;;7.40;;
2021;SDS011;1015;49.756;6.994;2023-06-14T02:09:38;8.03;;;6.87;;
2021;SDS011;1015;49.756;6.994;2023-06-14T02:12:06;7.73;;;6.90;;
2021;SDS011;1015;49.756;6.994;2023-06-14T02:14:35;7.53;;;6.83;;
2021;SDS011;1015;49.756;6.994;2023-06-14T02:17:03;7.83;;;7.13;;
2021;SDS011;1015;49.756;6.994;2023-06-14T02:19:31;7.33;;;6.50;;
2021;SDS011;1015;49.756;6.994;2023-06-14T02:21:58;8.67;;;7.00;;
2021;SDS011;1015;49.756;6.994;2023-06-14T02:24:26;9.20;;;7.50;;
2021;SDS011;1015;49.756;6.994;2023-06-14T02:26:53;8.20;;;7.40;;
2021;SDS011;1015;49.756;6.994;2023-06-14T02:29:20;33.73;;;8.40;;
2021;SDS011;1015;49.756;6.994;2023-06-14T02:31:49;7.63;;;7.03;;
2021;SDS011;1015;49.756;6.994;2023-06-14T02:34:16;7.87;;;7.17;;
2021;SDS011;1015;49.756;6.994;2023-06-14T02:36:44;7.03;;;6.37;;
2021;SDS011;1015;49.756;6.994;2023-06-14T02:39:13;8.50;;;6.80;;
2021;SDS011;1015;49.756;6.994;2023-06-14T02:41:40;7.57;;;6.83;;
2021;SDS011;1015;49.756;6.994;2023-06-14T02:44:07;10.13;;;7.20;;
2021;SDS011;1015;49.756;6.994;2023-06-14T02:46:36;8.13;;;6.60;;
2021;SDS011;1015;49.756;6.994;2023-06-14T02:49:05;9.10;;;6.80;;
2021;SDS011;1015;49.756;6.994;2023-06-14T02:51:32;24.43;;;7.10;;
2021;SDS011;1015;49.756;6.994;2023-06-14T02:54:00;9.33;;;6.70;;
2021;SDS011;1015;49.756;6.994;2023-06-14T02:56:27;7.20;;;6.50;;
2021;SDS011;1015;49.756;6.994;2023-06-14T02:58:54;7.33;;;6.63;;
2021;SDS011;1015;49.756;6.994;2023-06-14T03:01:22;7.87;;;6.67;;
2021;SDS011;1015;49.756;6.994;2023-06-14T03:03:51;6.97;;;6.37;;
2021;SDS011;1015;49.756;6.994;2023-06-14T03:06:19;7.70;;;7.00;;
2021;SDS011;1015;49.756;6.994;2023-06-14T03:08:50;7.63;;;6.67;;
2021;SDS011;1015;49.756;6.994;2023-06-14T03:11:20;8.07;;;6.93;;
2021;SDS011;1015;49.756;6.994;2023-06-14T03:13:47;7.80;;;6.73;;
2021;SDS011;1015;49.756;6.994;2023-06-14T03:16:16;7.47;;;6.70;;
2021;SDS011;1015;49.756;6.994;2023-06-14T03:18:44;7.43;;;6.60;;
2021;SDS011;1015;49.756;6.994;2023-06-14T03:21:11;7.07;;;6.20;;
2021;SDS011;1015;49.756;6.994;2023-06-14T03:23:42;7.03;;;6.33;;
2021;SDS011;1015;49.756;6.994;2023-06-14T03:26:09;8.70;;;7.40;;
2021;SDS011;1015;49.756;6.994;2023-06-14T03:28:38;7.53;;;6.83;;
2021;SDS011;1015;49.756;6.994;2023-06-14T03:31:05;7.03;;;6.43;;
2021;SDS011;1015;49.756;6.994;2023-06-14T03:33:33;6.80;;;6.20;;
2021;SDS011;1015;49.756;6.994;2023-06-14T03:36:01;7.83;;;6.60;;
2021;SDS011;1015;49.756;6.994;2023-06-14T03:38:28;6.80;;;6.20;;
2021;SDS011;1015;49.756;6.994;2023-06-14T03:40:57;7.13;;;6.43;;
2021;SDS011;1015;49.756;6.994;2023-06-14T03:43:24;8.03;;;7.33;;
2021;SDS011;1015;49.756;6.994;2023-06-14T03:45:52;7.73;;;7.00;;
2021;SDS011;1015;49.756;6.994;2023-06-14T03:48:19;6.90;;;6.03;;
2021;SDS011;1015;49.756;6.994;2023-06-14T03:50:46;7.13;;;6.43;;
2021;SDS011;1015;49.756;6.994;2023-06-14T03:53:13;6.87;;;6.27;;
2021;SDS011;1015;49.756;6.994;2023-06-14T03:55:41;8.00;;;6.70;;
2021;SDS011;1015;49.756;6.994;2023-06-14T03:58:09;6.97;;;6.33;;
2021;SDS011;1015;49.756;6.994;2023-06-14T04:00:38;6.80;;;6.20;;
2021;SDS011;1015;49.756;6.994;2023-06-14T04:03:05;7.27;;;6.57;;
2021;SDS011;1015;49.756;6.994;2023-06-14T04:05:32;7.67;;;6.97;;
2021;SDS011;1015;49.756;6.994;2023-06-14T04:08:01;7.53;;;6.87;;
2021;SDS011;1015;49.756;6.994;2023-06-14T04:10:28;7.60;;;6.80;;
2021;SDS011;1015;49.756;6.994;2023-06-14T04:12:55;6.67;;;6.07;;
2021;SDS011;1015;49.756;6.994;2023-06-14T04:15:24;7.30;;;6.57;;
2021;SDS011;1015;49.756;6.994;2023-06-14T04:17:53;6.67;;;5.97;;
2021;SDS011;1015;49.756;6.994;2023-06-14T04:20:22;6.07;;;5.60;;
2021;SDS011;1015;49.756;6.994;2023-06-14T04:22:50;7.60;;;6.30;;
2021;SDS011;1015;49.756;6.994;2023-06-14T04:25:18;6.83;;;6.13;;
2021;SDS011;1015;49.756;6.994;2023-06-14T04:27:45;6.37;;;5.87;;
2021;SDS011;1015;49.756;6.994;2023-06-14T04:30:13;7.00;;;6.30;;
2021;SDS011;1015;49.756;6.994;2023-06-14T04:32:41;7.10;;;6.40;;
2021;SDS011;1015;49.756;6.994;2023-06-14T04:35:09;6.37;;;5.77;;
2021;SDS011;1015;49.756;6.994;2023-06-14T04:37:36;7.03;;;6.33;;
2021;SDS011;1015;49.756;6.994;2023-06-14T04:40:07;6.70;;;6.10;;
2021;SDS011;1015;49.756;6.994;2023-06-14T04:42:34;7.10;;;6.40;;
2021;SDS011;1015;49.756;6.994;2023-06-14T04:45:02;8.40;;;6.60;;
2021;SDS011;1015;49.756;6.994;2023-06-14T04:47:29;6.47;;;5.87;;
2021;SDS011;1015;49.756;6.994;2023-06-14T04:49:58;6.77;;;6.17;;
2021;SDS011;1015;49.756;6.994;2023-06-14T04:52:25;6.87;;;6.17;;
2021;SDS011;1015;49.756;6.994;2023-06-14T04:54:54;6.60;;;6.03;;
2021;SDS011;1015;49.756;6.994;2023-06-14T04:57:22;6.60;;;6.00;;
2021;SDS011;1015;49.756;6.994;2023-06-14T04:59:50;7.70;;;6.43;;
2021;SDS011;1015;49.756;6.994;2023-06-14T05:02:20;6.90;;;6.20;;
2021;SDS011;1015;49.756;6.994;2023-06-14T05:04:47;6.77;;;6.07;;
2021;SDS011;1015;49.756;6.994;2023-06-14T05:07:15;6.27;;;5.87;;
2021;SDS011;1015;49.756;6.994;2023-06-14T05:09:43;6.07;;;5.57;;
2021;SDS011;1015;49.756;6.994;2023-06-14T05:12:10;6.03;;;5.63;;
2021;SDS011;1015;49.756;6.994;2023-06-14T05:14:37;6.77;;;6.10;;
2021;SDS011;1015;49.756;6.994;2023-06-14T05:17:05;7.70;;;6.20;;
2021;SDS011;1015;49.756;6.994;2023-06-14T05:19:33;7.40;;;6.40;;
2021;SDS011;1015;49.756;6.994;2023-06-14T05:22:00;6.97;;;6.37;;
2021;SDS011;1015;49.756;6.994;2023-06-14T05:24:30;7.87;;;6.30;;
2021;SDS011;1015;49.756;6.994;2023-06-14T05:26:57;6.63;;;5.97;;
2021;SDS011;1015;49.756;6.994;2023-06-14T05:29:24;6.17;;;5.57;;
2021;SDS011;1015;49.756;6.994;2023-06-14T05:31:52;6.83;;;6.17;;
2021;SDS011;1015;49.756;6.994;2023-06-14T05:34:19;6.60;;;6.00;;
2021;SDS011;1015;49.756;6.994;2023-06-14T05:36:47;5.70;;;5.20;;
2021;SDS011;1015;49.756;6.994;2023-06-14T05:39:14;6.80;;;6.20;;
2021;SDS011;1015;49.756;6.994;2023-06-14T05:41:43;7.43;;;6.63;;
2021;SDS011;1015;49.756;6.994;2023-06-14T05:44:10;6.90;;;6.30;;
2021;SDS011;1015;49.756;6.994;2023-06-14T05:46:38;7.10;;;6.27;;
2021;SDS011;1015;49.756;6.994;2023-06-14T05:49:05;6.57;;;5.97;;
2021;SDS011;1015;49.756;6.994;2023-06-14T05:51:32;6.80;;;6.20;;
2021;SDS011;1015;49.756;6.994;2023-06-14T05:54:00;6.57;;;6.07;;
2021;SDS011;1015;49.756;6.994;2023-06-14T05:56:27;6.70;;;6.10;;
2021;SDS011;1015;49.756;6.994;2023-06-14T05:58:56;6.93;;;6.20;;
2021;SDS011;1015;49.756;6.994;2023-06-14T06:01:23;7.00;;;6.40;;
2021;SDS011;1015;49.756;6.994;2023-06-14T06:03:51;6.80;;;6.20;;
2021;SDS011;1015;49.756;6.994;2023-06-14T06:06:18;6.47;;;5.87;;
2021;SDS011;1015;49.756;6.994;2023-06-14T06:08:46;6.77;;;6.27;;
2021;SDS011;1015;49.756;6.994;2023-06-14T06:11:13;6.93;;;6.33;;
2021;SDS011;1015;49.756;6.994;2023-06-14T06:13:40;6.77;;;6.17;;
2021;SDS011;1015;49.756;6.994;2023-06-14T06:16:09;7.40;;;6.70;;
2021;SDS011;1015;49.756;6.994;2023-06-14T06:18:36;7.13;;;6.43;;
2021;SDS011;1015;49.756;6.994;2023-06-14T06:21:04;6.53;;;5.93;;
2021;SDS011;1015;49.756;6.994;2023-06-14T06:23:31;7.93;;;5.93;;
2021;SDS011;1015;49.756;6.994;2023-06-14T06:25:58;6.43;;;5.83;;
2021;SDS011;1015;49.756;6.994;2023-06-14T06:28:25;7.30;;;6.60;;
2021;SDS011;1015;49.756;6.994;2023-06-14T06:30:53;7.13;;;6.10;;
2021;SDS011;1015;49.756;6.994;2023-06-14T06:33:22;7.97;;;6.77;;
2021;SDS011;1015;49.756;6.994;2023-06-14T06:35:49;7.10;;;6.50;;
2021;SDS011;1015;49.756;6.994;2023-06-14T06:38:16;6.37;;;5.77;;
2021;SDS011;1015;49.756;6.994;2023-06-14T06:40:43;7.23;;;6.17;;
2021;SDS011;1015;49.756;6.994;2023-06-14T06:43:11;6.47;;;5.87;;
2021;SDS011;1015;49.756;6.994;2023-06-14T06:45:39;7.03;;;6.40;;
2021;SDS011;1015;49.756;6.994;2023-06-14T06:48:06;6.20;;;5.70;;
2021;SDS011;1015;49.756;6.994;2023-06-14T06:50:36;6.97;;;6.37;;
2021;SDS011;1015;49.756;6.994;2023-06-14T06:53:03;6.17;;;5.63;;
2021;SDS011;1015;49.756;6.994;2023-06-14T06:55:31;6.33;;;5.73;;
2021;SDS011;1015;49.756;6.994;2023-06-14T06:57:59;5.90;;;5.50;;
2021;SDS011;1015;49.756;6.994;2023-06-14T07:00:26;7.00;;;6.00;;
2021;SDS011;1015;49.756;6.994;2023-06-14T07:02:53;6.93;;;5.57;;
2021;SDS011;1015;49.756;6.994;2023-06-14T07:05:22;6.90;;;5.57;;
2021;SDS011;1015;49.756;6.994;2023-06-14T07:07:50;7.10;;;5.60;;
2021;SDS011;1015;49.756;6.994;2023-06-14T07:10:18;6.20;;;5.60;;
2021;SDS011;1015;49.756;6.994;2023-06-14T07:12:45;6.00;;;5.40;;
2021;SDS011;1015;49.756;6.994;2023-06-14T07:15:12;9.00;;;5.57;;
2021;SDS011;1015;49.756;6.994;2023-06-14T07:17:39;6.87;;;6.20;;
2021;SDS011;1015;49.756;6.994;2023-06-14T07:20:08;7.10;;;6.00;;
2021;SDS011;1015;49.756;6.994;2023-06-14T07:22:37;6.33;;;5.73;;
2021;SDS011;1015;49.756;6.994;2023-06-14T07:25:06;6.60;;;5.57;;
2021;SDS011;1015;49.756;6.994;2023-06-14T07:27:33;6.10;;;5.57;;
2021;SDS011;1015;49.756;6.994;2023-06-14T07:30:00;5.90;;;5.30;;
2021;SDS011;1015;49.756;6.994;2023-06-14T07:32:28;6.10;;;5.40;;
2021;SDS011;1015;49.756;6.994;2023-06-14T07:34:55;6.17;;;5.67;;
2021;SDS011;1015;49.756;6.994;2023-06-14T07:37:22;5.50;;;5.10;;
2021;SDS011;1015;49.756;6.994;2023-06-14T07:39:49;7.30;;;6.00;;
2021;SDS011;1015;49.756;6.994;2023-06-14T07:42:18;8.60;;;5.30;;
2021;SDS011;1015;49.756;6.994;2023-06-14T07:44:45;6.00;;;5.50;;
2021;SDS011;1015;49.756;6.994;2023-06-14T07:47:13;6.13;;;5.60;;
2021;SDS011;1015;49.756;6.994;2023-06-14T07:49:40;6.30;;;5.70;;
2021;SDS011;1015;49.756;6.994;2023-06-14T07:52:07;7.73;;;6.03;;
2021;SDS011;1015;49.756;6.994;2023-06-14T07:54:34;6.43;;;5.80;;
2021;SDS011;1015;49.756;6.994;2023-06-14T07:57:02;6.60;;;6.00;;
2021;SDS011;1015;49.756;6.994;2023-06-14T07:59:31;7.30;;;6.23;;
2021;SDS011;1015;49.756;6.994;2023-06-14T08:01:58;6.53;;;5.93;;
2021;SDS011;1015;49.756;6.994;2023-06-14T08:04:25;8.60;;;5.57;;
2021;SDS011;1015;49.756;6.994;2023-06-14T08:06:52;6.40;;;5.80;;
2021;SDS011;1015;49.756;6.994;2023-06-14T08:09:20;6.80;;;6.20;;
2021;SDS011;1015;49.756;6.994;2023-06-14T08:11:48;7.03;;;6.00;;
2021;SDS011;1015;49.756;6.994;2023-06-14T08:14:15;6.33;;;5.53;;
2021;SDS011;1015;49.756;6.994;2023-06-14T08:16:43;7.43;;;6.07;;
2021;SDS011;1015;49.756;6.994;2023-06-14T08:19:11;10.60;;;6.37;;
2021;SDS011;1015;49.756;6.994;2023-06-14T08:21:38;7.60;;;5.73;;
2021;SDS011;1015;49.756;6.994;2023-06-14T08:24:05;7.97;;;6.70;;
2021;SDS011;1015;49.756;6.994;2023-06-14T08:26:33;6.33;;;5.70;;
2021;SDS011;1015;49.756;6.994;2023-06-14T08:29:01;6.50;;;6.00;;
2021;SDS011;1015;49.756;6.994;2023-06-14T08:31:29;6.00;;;5.40;;
2021;SDS011;1015;49.756;6.994;2023-06-14T08:33:58;6.10;;;5.60;;
2021;SDS011;1015;49.756;6.994;2023-06-14T08:36:25;6.30;;;5.50;;
2021;SDS011;1015;49.756;6.994;2023-06-14T08:38:52;8.40;;;6.17;;
2021;SDS011;1015;49.756;6.994;2023-06-14T08:41:21;6.63;;;6.03;;
2021;SDS011;1015;49.756;6.994;2023-06-14T08:43:49;6.63;;;6.03;;
2021;SDS011;1015;49.756;6.994;2023-06-14T08:46:17;7.33;;;5.90;;
2021;SDS011;1015;49.756;6.994;2023-06-14T08:48:46;6.83;;;5.73;;
2021;SDS011;1015;49.756;6.994;2023-06-14T08:51:16;6.67;;;6.07;;
2021;SDS011;1015;49.756;6.994;2023-06-14T08:53:46;6.03;;;5.53;;
2021;SDS011;1015;49.756;6.994;2023-06-14T08:56:16;6.10;;;5.50;;
2021;SDS011;1015;49.756;6.994;2023-06-14T08:58:43;8.83;;;6.60;;
2021;SDS011;1015;49.756;6.994;2023-06-14T09:01:11;7.30;;;6.60;;
2021;SDS011;1015;49.756;6.994;2023-06-14T09:03:39;6.47;;;5.77;;
2021;SDS011;1015;49.756;6.994;2023-06-14T09:06:07;7.10;;;6.13;;
2021;SDS011;1015;49.756;6.994;2023-06-14T09:08:40;6.10;;;5.60;;
2021;SDS011;1015;49.756;6.994;2023-06-14T09:11:10;7.23;;;6.30;;
2021;SDS011;1015;49.756;6.994;2023-06-14T09:13:38;6.37;;;5.73;;
2021;SDS011;1015;49.756;6.994;2023-06-14T09:16:05;5.63;;;5.10;;
2021;SDS011;1015;49.756;6.994;2023-06-14T09:18:34;6.17;;;5.63;;
2021;SDS011;1015;49.756;6.994;2023-06-14T09:21:01;10.10;;;6.20;;
2021;SDS011;1015;49.756;6.994;2023-06-14T09:23:28;6.77;;;6.07;;
2021;SDS011;1015;49.756;6.994;2023-06-14T09:25:57;6.13;;;5.63;;
2021;SDS011;1015;49.756;6.994;2023-06-14T09:28:26;6.90;;;6.20;;
2021;SDS011;1015;49.756;6.994;2023-06-14T09:30:54;6.60;;;5.90;;
2021;SDS011;1015;49.756;6.994;2023-06-14T09:33:21;6.60;;;5.40;;
2021;SDS011;1015;49.756;6.994;2023-06-14T09:35:50;6.17;;;5.67;;
2021;SDS011;1015;49.756;6.994;2023-06-14T09:38:18;6.00;;;5.50;;
2021;SDS011;1015;49.756;6.994;2023-06-14T09:40:45;6.93;;;6.33;;
2021;SDS011;1015;49.756;6.994;2023-06-14T09:43:14;7.63;;;6.93;;
2021;SDS011;1015;49.756;6.994;2023-06-14T09:45:41;7.27;;;5.97;;
2021;SDS011;1015;49.756;6.994;2023-06-14T09:48:11;6.80;;;6.07;;
2021;SDS011;1015;49.756;6.994;2023-06-14T09:50:42;8.50;;;6.13;;
2021;SDS011;1015;49.756;6.994;2023-06-14T09:53:10;6.33;;;5.83;;
2021;SDS011;1015;49.756;6.994;2023-06-14T09:55:38;6.40;;;5.87;;
2021;SDS011;1015;49.756;6.994;2023-06-14T09:58:07;7.60;;;5.57;;
2021;SDS011;1015;49.756;6.994;2023-06-14T10:00:36;5.97;;;5.40;;
2021;SDS011;1015;49.756;6.994;2023-06-14T10:03:05;5.90;;;5.30;;
2021;SDS011;1015;49.756;6.994;2023-06-14T10:05:33;8.50;;;6.07;;
2021;SDS011;1015;49.756;6.994;2023-06-14T10:08:03;7.20;;;5.23;;
2021;SDS011;1015;49.756;6.994;2023-06-14T10:10:31;6.37;;;5.73;;
2021;SDS011;1015;49.756;6.994;2023-06-14T10:12:58;5.70;;;5.20;;
2021;SDS011;1015;49.756;6.994;2023-06-14T10:15:28;6.60;;;6.07;;
2021;SDS011;1015;49.756;6.994;2023-06-14T10:18:01;5.73;;;5.07;;
2021;SDS011;1015;49.756;6.994;2023-06-14T10:20:29;9.40;;;5.43;;
2021;SDS011;1015;49.756;6.994;2023-06-14T10:22:59;9.17;;;5.40;;
2021;SDS011;1015;49.756;6.994;2023-06-14T10:25:27;5.70;;;5.10;;
2021;SDS011;1015;49.756;6.994;2023-06-14T10:30:37;5.87;;;5.37;;
2021;SDS011;1015;49.756;6.994;2023-06-14T10:33:06;8.10;;;5.00;;
2021;SDS011;1015;49.756;6.994;2023-06-14T10:35:35;6.83;;;5.30;;
2021;SDS011;1015;49.756;6.994;2023-06-14T10:38:08;5.60;;;5.03;;
2021;SDS011;1015;49.756;6.994;2023-06-14T10:40:36;6.10;;;4.77;;
2021;SDS011;1015;49.756;6.994;2023-06-14T10:48:31;4.83;;;4.43;;
2021;SDS011;1015;49.756;6.994;2023-06-14T10:51:00;5.23;;;4.30;;
2021;SDS011;1015;49.756;6.994;2023-06-14T10:53:27;4.67;;;4.27;;
2021;SDS011;1015;49.756;6.994;2023-06-14T10:55:56;9.20;;;5.00;;
2021;SDS011;1015;49.756;6.994;2023-06-14T10:58:23;9.77;;;4.53;;
2021;SDS011;1015;49.756;6.994;2023-06-14T11:00:50;6.93;;;4.23;;
2021;SDS011;1015;49.756;6.994;2023-06-14T11:06:16;4.30;;;3.90;;
2021;SDS011;1015;49.756;6.994;2023-06-14T11:09:01;5.47;;;4.50;;
2021;SDS011;1015;49.756;6.994;2023-06-14T11:11:34;5.07;;;4.23;;
2021;SDS011;1015;49.756;6.994;2023-06-14T11:14:02;4.73;;;4.10;;
2021;SDS011;1015;49.756;6.994;2023-06-14T11:16:29;4.30;;;3.90;;
2021;SDS011;1015;49.756;6.994;2023-06-14T11:18:59;4.63;;;3.97;;
2021;SDS011;1015;49.756;6.994;2023-06-14T11:21:29;4.47;;;4.07;;
2021;SDS011;1015;49.756;6.994;2023-06-14T11:23:58;6.10;;;4.27;;
2021;SDS011;1015;49.756;6.994;2023-06-14T11:26:26;6.63;;;4.17;;
2021;SDS011;1015;49.756;6.994;2023-06-14T11:28:55;4.77;;;4.37;;
2021;SDS011;1015;49.756;6.994;2023-06-14T11:31:22;4.40;;;4.07;;
2021;SDS011;1015;49.756;6.994;2023-06-14T11:33:50;5.90;;;4.00;;
2021;SDS011;1015;49.756;6.994;2023-06-14T11:36:17;7.50;;;4.80;;
2021;SDS011;1015;49.756;6.994;2023-06-14T11:38:46;6.00;;;4.27;;
2021;SDS011;1015;49.756;6.994;2023-06-14T11:41:13;3.90;;;3.60;;
2021;SDS011;1015;49.756;6.994;2023-06-14T11:43:40;4.50;;;3.53;;
2021;SDS011;1015;49.756;6.994;2023-06-14T11:46:12;4.10;;;3.70;;
2021;SDS011;1015;49.756;6.994;2023-06-14T11:48:40;4.13;;;3.70;;
2021;SDS011;1015;49.756;6.994;2023-06-14T11:51:08;5.13;;;4.10;;
2021;SDS011;1015;49.756;6.994;2023-06-14T11:53:36;3.70;;;3.33;;
2021;SDS011;1015;49.756;6.994;2023-06-14T11:56:05;4.77;;;3.90;;
2021;SDS011;1015;49.756;6.994;2023-06-14T11:58:32;4.40;;;4.00;;
2021;SDS011;1015;49.756;6.994;2023-06-14T12:01:00;3.87;;;3.57;;
2021;SDS011;1015;49.756;6.994;2023-06-14T12:03:27;4.53;;;3.67;;
2021;SDS011;1015;49.756;6.994;2023-06-14T12:06:06;3.73;;;3.43;;
2021;SDS011;1015;49.756;6.994;2023-06-14T12:08:34;5.30;;;3.80;;
2021;SDS011;1015;49.756;6.994;2023-06-14T12:11:05;5.13;;;3.70;;
2021;SDS011;1015;49.756;6.994;2023-06-14T12:13:34;4.00;;;3.60;;
2021;SDS011;1015;49.756;6.994;2023-06-14T12:16:02;4.13;;;3.73;;
2021;SDS011;1015;49.756;6.994;2023-06-14T12:18:33;6.37;;;3.40;;
2021;SDS011;1015;49.756;6.994;2023-06-14T12:21:00;6.40;;;3.20;;
2021;SDS011;1015;49.756;6.994;2023-06-14T12:23:38;7.43;;;3.60;;
2021;SDS011;1015;49.756;6.994;2023-06-14T12:26:07;3.70;;;3.33;;
2021;SDS011;1015;49.756;6.994;2023-06-14T12:28:34;3.83;;;3.47;;
2021;SDS011;1015;49.756;6.994;2023-06-14T12:31:01;4.37;;;3.07;;
2021;SDS011;1015;49.756;6.994;2023-06-14T12:33:29;4.90;;;3.50;;
2021;SDS011;1015;49.756;6.994;2023-06-14T12:35:56;3.07;;;2.87;;
2021;SDS011;1015;49.756;6.994;2023-06-14T12:38:24;3.33;;;2.83;;
2021;SDS011;1015;49.756;6.994;2023-06-14T12:40:51;3.20;;;3.00;;
2021;SDS011;1015;49.756;6.994;2023-06-14T12:43:20;3.50;;;3.00;;
2021;SDS011;1015;49.756;6.994;2023-06-14T12:45:47;3.00;;;2.70;;
2021;SDS011;1015;49.756;6.994;2023-06-14T12:48:14;3.17;;;2.93;;
2021;SDS011;1015;49.756;6.994;2023-06-14T12:50:41;3.43;;;3.13;;
2021;SDS011;1015;49.756;6.994;2023-06-14T12:53:09;3.40;;;2.90;;
2021;SDS011;1015;49.756;6.994;2023-06-14T12:55:36;3.70;;;3.20;;
2021;SDS011;1015;49.756;6.994;2023-06-14T12:58:03;3.37;;;3.07;;
2021;SDS011;1015;49.756;6.994;2023-06-14T13:00:32;3.10;;;2.90;;
2021;SDS011;1015;49.756;6.994;2023-06-14T13:02:59;3.23;;;2.90;;
2021;SDS011;1015;49.756;6.994;2023-06-14T13:05:27;3.47;;;2.83;;
2021;SDS011;1015;49.756;6.994;2023-06-14T13:07:56;4.50;;;3.17;;
2021;SDS011;1015;49.756;6.994;2023-06-14T13:10:23;3.90;;;2.87;;
2021;SDS011;1015;49.756;6.994;2023-06-14T13:12:50;3.40;;;3.10;;
2021;SDS011;1015;49.756;6.994;2023-06-14T13:15:17;3.87;;;3.53;;
2021;SDS011;1015;49.756;6.994;2023-06-14T13:17:46;3.37;;;2.90;;
2021;SDS011;1015;49.756;6.994;2023-06-14T13:20:14;3.43;;;3.13;;
2021;SDS011;1015;49.756;6.994;2023-06-14T13:22:41;3.40;;;3.20;;
2021;SDS011;1015;49.756;6.994;2023-06-14T13:25:09;4.00;;;3.33;;
2021;SDS011;1015;49.756;6.994;2023-06-14T13:27:36;3.20;;;2.90;;
2021;SDS011;1015;49.756;6.994;2023-06-14T13:30:04;3.30;;;3.00;;
2021;SDS011;1015;49.756;6.994;2023-06-14T13:32:31;3.53;;;3.17;;
2021;SDS011;1015;49.756;6.994;2023-06-14T13:35:00;3.43;;;3.00;;
2021;SDS011;1015;49.756;6.994;2023-06-14T13:37:29;3.20;;;3.00;;
2021;SDS011;1015;49.756;6.994;2023-06-14T13:39:56;3.87;;;3.00;;
2021;SDS011;1015;49.756;6.994;2023-06-14T13:42:23;4.60;;;3.10;;
2021;SDS011;1015;49.756;6.994;2023-06-14T13:44:50;3.17;;;2.83;;
2021;SDS011;1015;49.756;6.994;2023-06-14T13:47:18;3.53;;;3.10;;
2021;SDS011;1015;49.756;6.994;2023-06-14T13:49:45;3.63;;;2.70;;
2021;SDS011;1015;49.756;6.994;2023-06-14T13:52:14;3.13;;;2.83;;
2021;SDS011;1015;49.756;6.994;2023-06-14T13:54:42;3.30;;;2.80;;
2021;SDS011;1015;49.756;6.994;2023-06-14T13:57:09;3.10;;;2.90;;
2021;SDS011;1015;49.756;6.994;2023-06-14T13:59:37;3.33;;;3.07;;
2021;SDS011;1015;49.756;6.994;2023-06-14T14:02:05;2.97;;;2.73;;
2021;SDS011;1015;49.756;6.994;2023-06-14T14:04:33;3.63;;;2.93;;
2021;SDS011;1015;49.756;6.994;2023-06-14T14:07:00;3.20;;;2.90;;
2021;SDS011;1015;49.756;6.994;2023-06-14T14:09:29;3.40;;;3.10;;
2021;SDS011;1015;49.756;6.994;2023-06-14T14:11:57;2.90;;;2.60;;
2021;SDS011;1015;49.756;6.994;2023-06-14T14:14:24;4.80;;;2.70;;
2021;SDS011;1015;49.756;6.994;2023-06-14T14:16:52;3.40;;;2.70;;
2021;SDS011;1015;49.756;6.994;2023-06-14T14:19:20;3.10;;;2.90;;
2021;SDS011;1015;49.756;6.994;2023-06-14T14:21:47;3.97;;;2.60;;
2021;SDS011;1015;49.756;6.994;2023-06-14T14:24:14;2.80;;;2.60;;
2021;SDS011;1015;49.756;6.994;2023-06-14T14:26:43;3.00;;;2.70;;
2021;SDS011;1015;49.756;6.994;2023-06-14T14:29:12;2.93;;;2.63;;
2021;SDS011;1015;49.756;6.994;2023-06-14T14:31:39;3.10;;;2.90;;
2021;SDS011;1015;49.756;6.994;2023-06-14T14:34:07;2.43;;;2.20;;
2021;SDS011;1015;49.756;6.994;2023-06-14T14:36:34;2.80;;;2.60;;
2021;SDS011;1015;49.756;6.994;2023-06-14T14:39:02;4.23;;;2.40;;
2021;SDS011;1015;49.756;6.994;2023-06-14T14:41:30;2.97;;;2.70;;
2021;SDS011;1015;49.756;6.994;2023-06-14T14:43:58;2.43;;;2.20;;
2021;SDS011;1015;49.756;6.994;2023-06-14T14:46:26;2.50;;;2.30;;
2021;SDS011;1015;49.756;6.994;2023-06-14T14:48:54;3.43;;;2.63;;
2021;SDS011;1015;49.756;6.994;2023-06-14T14:51:21;5.33;;;2.20;;
2021;SDS011;1015;49.756;6.994;2023-06-14T14:53:48;3.67;;;2.20;;
2021;SDS011;1015;49.756;6.994;2023-06-14T14:56:16;2.77;;;2.30;;
2021;SDS011;1015;49.756;6.994;2023-06-14T14:58:43;2.30;;;2.10;;
2021;SDS011;1015;49.756;6.994;2023-06-14T15:01:12;2.77;;;1.93;;
2021;SDS011;1015;49.756;6.994;2023-06-14T15:03:39;2.60;;;2.40;;
2021;SDS011;1015;49.756;6.994;2023-06-14T15:06:07;2.10;;;1.90;;
2021;SDS011;1015;49.756;6.994;2023-06-14T15:08:34;2.30;;;2.20;;
2021;SDS011;1015;49.756;6.994;2023-06-14T15:11:01;3.63;;;2.33;;
2021;SDS011;1015;49.756;6.994;2023-06-14T15:13:29;2.40;;;2.20;;
2021;SDS011;1015;49.756;6.994;2023-06-14T15:15:56;2.50;;;2.30;;
2021;SDS011;1015;49.756;6.994;2023-06-14T15:18:24;2.10;;;2.00;;
2021;SDS011;1015;49.756;6.994;2023-06-14T15:20:52;2.40;;;2.20;;
2021;SDS011;1015;49.756;6.994;2023-06-14T15:23:20;37.67;;;4.03;;
2021;SDS011;1015;49.756;6.994;2023-06-14T15:25:48;2.17;;;1.97;;
2021;SDS011;1015;49.756;6.994;2023-06-14T15:28:17;2.30;;;2.10;;
2021;SDS011;1015;49.756;6.994;2023-06-14T15:30:44;1.70;;;1.60;;